Time;durP1;ratioP1;P1;durP2;ratioP2;P2;SDS_P1;SDS_P2;PMS_P1;PMS_P2;Temp;Humidity;BMP_temperature;BMP_pressure;BME280_temperature;BME280_humidity;BME280_pressure;Samples;Min_cycle;Max_cycle;Signal;HPM_P1;HPM_P2
2022/12/17 13:06:44;;;;;;;6.95;5.97;;;7.20;99.90;;;;;;5077981;28;20106;-86
2022/12/17 13:09:25;;;;;;;7.25;5.55;;;7.40;99.90;;;;;;5076449;28;20040;-85
2022/12/17 13:12:16;;;;;;;9.48;6.47;;;7.40;99.90;;;;;;5089576;28;20039;-85
2022/12/17 13:14:41;;;;;;;7.00;5.93;;;7.40;99.90;;;;;;5078889;28;20036;-85
2022/12/17 13:17:26;;;;;;;10.15;6.53;;;7.40;99.90;;;;;;5083664;28;20028;-85
2022/12/17 13:20:16;;;;;;;6.47;5.78;;;7.30;99.90;;;;;;5089934;28;20107;-86
2022/12/17 13:22:50;;;;;;;5.43;4.93;;;7.30;99.90;;;;;;5069133;28;20136;-85
2022/12/17 13:25:21;;;;;;;6.95;5.95;;;7.50;99.90;;;;;;5069808;28;20017;-85
2022/12/17 13:27:48;;;;;;;11.52;5.75;;;7.60;99.90;;;;;;5064604;28;20037;-85
2022/12/17 13:30:16;;;;;;;7.88;5.57;;;7.50;99.90;;;;;;5069844;28;20027;-85
2022/12/17 13:33:07;;;;;;;6.72;5.70;;;7.60;99.90;;;;;;5071028;28;20103;-85
2022/12/17 13:36:08;;;;;;;6.50;5.60;;;7.40;99.90;;;;;;5068148;28;20086;-85
2022/12/17 13:38:48;;;;;;;7.00;6.07;;;7.40;99.90;;;;;;4992205;28;20128;-85
2022/12/17 13:41:17;;;;;;;6.28;5.68;;;7.40;99.90;;;;;;4996102;28;20030;-85
2022/12/17 13:43:58;;;;;;;9.15;5.75;;;7.50;99.90;;;;;;5002428;28;20142;-85
2022/12/17 13:46:39;;;;;;;7.45;6.30;;;7.50;99.90;;;;;;4991405;28;20031;-85
2022/12/17 13:49:30;;;;;;;7.22;5.88;;;7.50;99.90;;;;;;4991145;28;20022;-87
2022/12/17 13:52:00;;;;;;;8.73;6.60;;;7.50;99.90;;;;;;5001325;28;20026;-86
2022/12/17 13:54:25;;;;;;;8.13;7.13;;;7.30;99.90;;;;;;5002592;28;20034;-88
2022/12/17 13:56:52;;;;;;;9.48;6.85;;;7.30;99.90;;;;;;5001116;28;20284;-88
2022/12/17 13:59:23;;;;;;;8.15;6.15;;;7.40;99.90;;;;;;5005863;28;20511;-87
2022/12/17 14:01:51;;;;;;;8.25;6.30;;;7.40;99.90;;;;;;4989324;28;20113;-88
2022/12/17 14:04:28;;;;;;;7.22;6.53;;;7.30;99.90;;;;;;4999871;28;20045;-87
2022/12/17 14:07:01;;;;;;;7.43;6.30;;;7.50;99.90;;;;;;4998231;28;20030;-87
2022/12/17 14:09:34;;;;;;;6.68;5.68;;;7.50;99.90;;;;;;5004964;28;20034;-87
2022/12/17 14:12:22;;;;;;;7.28;5.68;;;7.60;99.90;;;;;;5017251;28;20040;-87
2022/12/17 14:15:03;;;;;;;6.45;5.70;;;7.60;99.90;;;;;;5067668;28;20037;-87
2022/12/17 14:17:41;;;;;;;6.65;5.50;;;7.50;99.90;;;;;;5066508;28;20315;-88
2022/12/17 14:20:12;;;;;;;7.72;5.97;;;7.40;99.90;;;;;;5068222;28;20062;-87
2022/12/17 14:22:41;;;;;;;8.80;7.63;;;7.40;99.90;;;;;;5070866;28;20067;-88
2022/12/17 14:25:18;;;;;;;9.32;7.50;;;7.40;99.90;;;;;;5071399;28;20036;-85
2022/12/17 14:28:05;;;;;;;9.27;7.25;;;7.30;99.90;;;;;;5070139;28;20129;-80
2022/12/17 14:30:41;;;;;;;8.70;7.80;;;7.30;99.90;;;;;;5069969;28;20025;-90
2022/12/17 14:33:33;;;;;;;10.43;8.02;;;7.20;99.90;;;;;;5071583;28;20090;-90
2022/12/17 14:36:03;;;;;;;11.07;7.68;;;7.30;99.90;;;;;;5059351;28;20085;-89
2022/12/17 14:38:28;;;;;;;7.55;6.78;;;7.50;99.90;;;;;;5072788;28;20029;-90
2022/12/17 14:42:24;;;;;;;8.32;6.82;;;7.60;99.90;;;;;;5080893;28;20039;-90
2022/12/17 14:43:54;;;;;;;9.70;6.90;;;7.60;99.90;;;;;;5072924;28;20032;-91
2022/12/17 14:46:21;;;;;;;7.88;6.57;;;7.50;99.90;;;;;;5072247;28;20020;-91
2022/12/17 14:48:59;;;;;;;7.78;6.65;;;7.50;99.90;;;;;;5072617;28;20101;-91
2022/12/17 14:51:37;;;;;;;7.10;6.40;;;7.40;99.90;;;;;;5065350;28;20036;-91
2022/12/17 14:54:30;;;;;;;7.90;6.60;;;7.30;99.90;;;;;;5072712;28;20063;-91
2022/12/17 14:56:58;;;;;;;8.15;6.20;;;7.40;99.90;;;;;;5060578;28;20110;-91
2022/12/17 14:59:34;;;;;;;7.55;6.25;;;7.40;99.90;;;;;;5072112;28;20036;-91
2022/12/17 15:02:22;;;;;;;7.90;6.13;;;7.50;99.90;;;;;;5070047;28;20506;-90
2022/12/17 15:04:48;;;;;;;6.82;5.85;;;7.50;99.90;;;;;;5066427;28;20020;-90
2022/12/17 15:07:20;;;;;;;5.97;5.10;;;7.50;99.90;;;;;;5068912;28;20509;-91
2022/12/17 15:09:45;;;;;;;;;;;7.60;99.90;;;;;;5070077;28;20017;-91
2022/12/17 15:12:11;;;;;;;6.10;5.35;;;7.60;99.90;;;;;;5070720;28;20428;-90
2022/12/17 15:14:37;;;;;;;6.95;5.60;;;7.40;99.90;;;;;;5065483;28;20021;-90
2022/12/17 15:17:04;;;;;;;6.13;5.50;;;7.50;99.90;;;;;;5064633;28;20032;-91
2022/12/17 15:19:30;;;;;;;6.85;5.63;;;7.50;99.90;;;;;;5060540;28;20093;-90
2022/12/17 15:21:56;;;;;;;6.25;5.65;;;7.40;99.90;;;;;;5062287;28;20112;-90
2022/12/17 15:24:22;;;;;;;5.75;4.78;;;7.30;99.90;;;;;;5070073;28;20104;-90
2022/12/17 15:26:48;;;;;;;6.57;4.90;;;7.30;99.90;;;;;;5067133;28;20046;-91
2022/12/17 15:29:14;;;;;;;6.00;4.93;;;7.30;99.90;;;;;;5070312;28;20090;-90
2022/12/17 15:31:40;;;;;;;7.53;5.10;;;7.30;99.90;;;;;;5070906;28;20016;-91
2022/12/17 15:34:11;;;;;;;8.95;5.70;;;7.30;99.90;;;;;;5068882;28;20058;-91
2022/12/17 15:36:40;;;;;;;9.63;5.50;;;7.10;99.90;;;;;;5062035;28;20021;-90
2022/12/17 15:39:06;;;;;;;8.20;5.63;;;7.20;99.90;;;;;;5067261;28;20044;-91
2022/12/17 15:44:16;;;;;;;6.57;5.65;;;7.10;99.90;;;;;;5054942;28;20162;-88
2022/12/17 15:46:42;;;;;;;8.05;5.38;;;7.20;99.90;;;;;;5055793;28;20115;-91
2022/12/17 15:49:07;;;;;;;5.45;4.68;;;7.30;99.90;;;;;;5057766;28;20028;-91
2022/12/17 15:51:33;;;;;;;6.15;4.93;;;7.30;99.90;;;;;;5065782;28;20025;-91
2022/12/17 15:53:59;;;;;;;6.80;5.05;;;7.20;99.90;;;;;;5063100;28;20078;-90
2022/12/17 15:56:26;;;;;;;7.50;4.75;;;7.00;99.90;;;;;;5065732;28;20036;-90
2022/12/17 15:58:56;;;;;;;4.68;4.10;;;7.10;99.90;;;;;;5065591;28;20025;-90
2022/12/17 16:01:22;;;;;;;5.20;3.95;;;7.20;99.90;;;;;;5063548;28;20640;-90
2022/12/17 16:03:51;;;;;;;5.18;4.00;;;7.20;99.90;;;;;;5066605;28;20099;-90
2022/12/17 16:06:16;;;;;;;4.05;3.55;;;7.20;99.90;;;;;;5073872;28;20020;-90
2022/12/17 16:08:45;;;;;;;5.95;4.20;;;7.20;99.90;;;;;;5063425;28;20047;-91
2022/12/17 16:11:17;;;;;;;5.15;4.18;;;7.20;99.90;;;;;;5068926;28;20036;-90
2022/12/17 16:13:43;;;;;;;3.55;3.25;;;7.20;99.90;;;;;;5068914;28;20185;-91
2022/12/17 16:16:09;;;;;;;3.78;3.38;;;7.30;99.90;;;;;;5063597;28;20041;-90
2022/12/17 16:18:37;;;;;;;4.20;3.50;;;7.30;99.90;;;;;;5069822;28;20021;-90
2022/12/17 16:21:07;;;;;;;4.35;3.55;;;7.30;99.90;;;;;;5068193;28;20028;-91
2022/12/17 16:23:33;;;;;;;4.45;3.47;;;7.20;99.90;;;;;;5064023;28;20028;-90
2022/12/17 16:26:02;;;;;;;3.70;3.00;;;7.30;99.90;;;;;;5067027;28;20036;-90
2022/12/17 16:28:28;;;;;;;5.38;4.10;;;7.20;99.90;;;;;;5065985;28;20024;-90
2022/12/17 16:31:03;;;;;;;6.88;4.88;;;7.10;99.90;;;;;;5068868;28;20021;-90
2022/12/17 16:33:33;;;;;;;6.32;5.40;;;7.10;99.90;;;;;;5064380;28;20135;-90
2022/12/17 16:35:59;;;;;;;7.70;5.72;;;7.10;99.90;;;;;;5069670;28;20127;-90
2022/12/17 16:38:25;;;;;;;7.53;5.80;;;7.10;99.90;;;;;;5068705;28;20541;-90
2022/12/17 16:40:55;;;;;;;7.00;6.25;;;7.10;99.90;;;;;;5071786;28;20035;-91
2022/12/17 16:43:21;;;;;;;7.53;5.50;;;6.90;99.90;;;;;;5068367;28;20040;-90
2022/12/17 16:45:49;;;;;;;6.40;5.47;;;7.00;99.90;;;;;;5069253;28;20028;-91
2022/12/17 16:48:16;;;;;;;7.22;5.65;;;7.00;99.90;;;;;;5066035;28;20074;-91
2022/12/17 16:50:43;;;;;;;6.43;5.15;;;7.00;99.90;;;;;;5068526;28;20103;-90
2022/12/17 16:53:09;;;;;;;6.28;4.95;;;7.00;99.90;;;;;;5069296;28;20044;-90
2022/12/17 16:55:45;;;;;;;6.47;4.93;;;7.00;99.90;;;;;;5069504;28;20502;-91
2022/12/17 16:58:12;;;;;;;5.30;4.45;;;7.00;99.90;;;;;;5066822;28;20041;-91
2022/12/17 17:00:38;;;;;;;6.60;5.55;;;6.80;99.90;;;;;;5069341;28;20103;-91
2022/12/17 17:03:05;;;;;;;5.68;5.00;;;6.80;99.90;;;;;;5068805;28;20468;-90
2022/12/17 17:05:38;;;;;;;5.57;4.25;;;6.80;99.90;;;;;;5079501;28;20182;-90
2022/12/17 17:08:05;;;;;;;7.32;6.50;;;6.90;99.90;;;;;;5076165;28;20046;-91
2022/12/17 17:10:30;;;;;;;7.70;6.90;;;6.80;99.90;;;;;;5068076;28;20024;-91
2022/12/17 17:12:56;;;;;;;7.50;6.28;;;6.60;99.90;;;;;;5069917;28;20439;-91
2022/12/17 17:15:22;;;;;;;6.10;5.47;;;6.80;99.90;;;;;;5067882;28;20321;-91
2022/12/17 17:17:48;;;;;;;6.88;6.13;;;6.70;99.90;;;;;;5069023;28;20393;-91
2022/12/17 17:20:14;;;;;;;6.15;5.55;;;6.80;99.90;;;;;;5061444;28;20060;-90
2022/12/17 17:22:40;;;;;;;6.25;5.00;;;6.70;99.90;;;;;;5072610;28;20032;-91
2022/12/17 17:25:07;;;;;;;6.55;5.80;;;6.50;99.90;;;;;;5066275;28;20028;-91
2022/12/17 17:27:32;;;;;;;5.78;5.18;;;6.50;99.90;;;;;;5072771;28;20051;-91
2022/12/17 17:29:58;;;;;;;5.95;5.28;;;6.60;99.90;;;;;;5066988;28;20100;-91
2022/12/17 17:32:24;;;;;;;6.43;5.25;;;6.50;99.90;;;;;;5073022;28;20027;-90
2022/12/17 17:34:50;;;;;;;5.57;4.97;;;6.50;99.90;;;;;;5072617;28;20032;-91
2022/12/17 17:37:16;;;;;;;5.47;4.50;;;6.40;99.90;;;;;;5064248;28;20021;-91
2022/12/17 17:39:42;;;;;;;7.88;6.15;;;6.50;99.90;;;;;;5069118;28;20028;-91
2022/12/17 17:42:07;;;;;;;8.07;6.30;;;6.60;99.90;;;;;;5073245;28;20028;-91
2022/12/17 17:44:33;;;;;;;9.13;6.65;;;6.60;99.90;;;;;;5073771;28;20036;-91
2022/12/17 17:46:59;;;;;;;8.00;6.68;;;6.60;99.90;;;;;;5073579;28;20028;-91
2022/12/17 17:49:25;;;;;;;8.70;6.13;;;6.50;99.90;;;;;;5077513;28;20577;-90
2022/12/17 17:51:51;;;;;;;8.70;6.55;;;6.40;99.90;;;;;;5073435;28;20020;-90
2022/12/17 17:54:17;;;;;;;6.68;5.53;;;6.50;99.90;;;;;;5073798;28;20024;-91
2022/12/17 17:56:43;;;;;;;7.88;6.40;;;6.50;99.90;;;;;;5073720;28;20585;-90
2022/12/17 17:59:14;;;;;;;6.63;5.53;;;6.50;99.90;;;;;;5074599;28;20024;-91
2022/12/17 18:01:42;;;;;;;10.15;6.72;;;6.50;99.90;;;;;;5060527;28;20032;-90
2022/12/17 18:04:11;;;;;;;9.23;6.15;;;6.40;99.90;;;;;;5073986;28;20036;-90
2022/12/17 18:06:39;;;;;;;8.88;6.45;;;6.40;99.90;;;;;;5073736;28;20031;-92
2022/12/17 18:09:05;;;;;;;8.80;6.28;;;6.50;99.90;;;;;;5073664;28;20024;-91
2022/12/17 18:11:32;;;;;;;8.55;6.07;;;6.40;99.90;;;;;;5073516;28;20029;-91
2022/12/17 18:13:59;;;;;;;8.13;6.20;;;6.50;99.90;;;;;;5073429;28;20086;-91
2022/12/17 18:16:36;;;;;;;7.82;5.93;;;6.40;99.90;;;;;;5073093;28;20028;-91
2022/12/17 18:19:04;;;;;;;6.68;5.43;;;6.50;99.90;;;;;;5073727;28;20051;-91
2022/12/17 18:21:31;;;;;;;6.13;5.30;;;6.60;99.90;;;;;;5073398;28;20566;-91
2022/12/17 18:24:06;;;;;;;7.68;5.90;;;6.60;99.90;;;;;;5073124;28;20025;-91
2022/12/17 18:26:38;;;;;;;8.55;6.53;;;6.70;99.90;;;;;;5073066;28;20048;-91
2022/12/17 18:29:09;;;;;;;8.48;6.20;;;6.70;99.90;;;;;;5073177;28;20032;-92
2022/12/17 18:31:35;;;;;;;9.57;6.93;;;6.60;99.90;;;;;;5071204;28;20103;-91
2022/12/17 18:34:03;;;;;;;10.45;7.18;;;6.50;99.90;;;;;;5072829;28;20036;-91
2022/12/17 18:36:37;;;;;;;7.55;6.18;;;6.30;99.90;;;;;;5072816;28;20056;-91
2022/12/17 18:39:04;;;;;;;9.82;6.72;;;6.30;99.90;;;;;;5082216;28;20036;-91
2022/12/17 18:44:15;;;;;;;7.63;5.65;;;6.20;99.90;;;;;;5072851;28;20043;-91
2022/12/17 18:46:41;;;;;;;7.57;6.10;;;6.20;99.90;;;;;;5076652;28;20020;-91
2022/12/17 18:49:10;;;;;;;6.63;5.18;;;6.20;99.90;;;;;;5081894;28;20036;-90
2022/12/17 18:51:38;;;;;;;6.60;5.50;;;6.30;99.90;;;;;;5072898;28;20052;-92
2022/12/17 18:54:07;;;;;;;5.38;4.53;;;6.30;99.90;;;;;;5073195;28;20047;-90
2022/12/17 18:56:34;;;;;;;6.30;5.05;;;6.20;99.90;;;;;;5086391;28;20032;-91
2022/12/17 18:59:00;;;;;;;5.20;4.70;;;6.30;99.90;;;;;;5072835;28;20029;-91
2022/12/17 19:01:34;;;;;;;5.85;4.75;;;6.50;99.90;;;;;;5072505;28;20073;-91
2022/12/17 19:04:05;;;;;;;5.43;4.45;;;6.50;99.90;;;;;;5072345;28;20119;-91
2022/12/17 19:06:33;;;;;;;6.93;5.25;;;6.20;99.90;;;;;;5078830;28;20146;-92
2022/12/17 19:08:59;;;;;;;5.97;4.75;;;6.30;99.90;;;;;;5081631;28;20036;-90
2022/12/17 19:11:26;;;;;;;7.60;5.47;;;6.40;99.90;;;;;;5058512;28;20043;-91
2022/12/17 19:13:51;;;;;;;6.45;5.25;;;6.20;99.90;;;;;;5072028;28;20051;-91
2022/12/17 19:16:20;;;;;;;6.50;5.00;;;6.20;99.90;;;;;;5072403;28;20021;-91
2022/12/17 19:18:51;;;;;;;6.30;4.93;;;6.00;99.90;;;;;;5079924;28;20052;-91
2022/12/17 19:21:17;;;;;;;;;;;6.10;99.90;;;;;;5072827;28;20025;-91
2022/12/17 19:23:43;;;;;;;6.93;5.28;;;6.20;99.90;;;;;;5071608;28;19939;-91
2022/12/17 19:26:15;;;;;;;5.00;4.50;;;6.20;99.90;;;;;;5079872;28;20066;-91
2022/12/17 19:28:42;;;;;;;6.57;5.00;;;6.20;99.90;;;;;;5080869;28;20020;-91
2022/12/17 19:31:09;;;;;;;8.05;5.18;;;6.10;99.90;;;;;;5071867;28;20482;-91
2022/12/17 19:33:35;;;;;;;6.75;5.65;;;6.20;99.90;;;;;;5083455;28;20090;-91
2022/12/17 19:36:04;;;;;;;6.95;4.88;;;5.90;99.90;;;;;;5071862;28;20032;-91
2022/12/17 19:38:31;;;;;;;6.45;4.75;;;6.00;99.90;;;;;;5071570;28;20028;-91
2022/12/17 19:41:03;;;;;;;6.38;4.85;;;6.10;99.90;;;;;;5072190;28;20036;-91
2022/12/17 19:43:28;;;;;;;;;;;6.00;99.90;;;;;;5085284;28;20118;-91
2022/12/17 19:46:01;;;;;;;6.68;5.13;;;6.00;99.90;;;;;;5071857;28;19999;-91
2022/12/17 19:48:27;;;;;;;4.95;4.28;;;6.10;99.90;;;;;;5070558;28;20039;-91
2022/12/17 19:50:56;;;;;;;4.85;4.25;;;6.20;99.90;;;;;;5071932;28;20028;-90
2022/12/17 19:53:22;;;;;;;5.72;4.93;;;6.20;99.90;;;;;;5072412;28;20024;-91
2022/12/17 19:55:48;;;;;;;6.43;4.43;;;6.00;99.90;;;;;;5080332;28;20024;-91
2022/12/17 19:58:13;;;;;;;6.00;4.50;;;6.10;99.90;;;;;;5071304;28;20478;-91
2022/12/17 20:00:39;;;;;;;5.97;5.35;;;6.20;99.90;;;;;;5071360;28;20150;-91
2022/12/17 20:03:05;;;;;;;7.57;4.93;;;6.00;99.90;;;;;;5070944;28;20441;-90
2022/12/17 20:05:34;;;;;;;7.18;5.47;;;6.10;99.90;;;;;;5077978;28;20390;-91
2022/12/17 20:08:02;;;;;;;8.10;5.40;;;6.20;99.90;;;;;;5071641;28;20017;-91
2022/12/17 20:10:37;;;;;;;5.90;5.07;;;6.20;99.90;;;;;;5071754;28;20072;-91
2022/12/17 20:13:03;;;;;;;6.40;4.88;;;6.30;99.90;;;;;;5070644;28;20086;-91
2022/12/17 20:15:29;;;;;;;7.05;5.45;;;6.30;99.90;;;;;;5070923;28;20031;-91
2022/12/17 20:17:56;;;;;;;6.90;5.65;;;6.30;99.90;;;;;;5071124;28;20060;-91
2022/12/17 20:20:22;;;;;;;7.97;5.47;;;6.20;99.90;;;;;;5071103;28;20105;-90
2022/12/17 20:22:47;;;;;;;9.93;6.93;;;6.20;99.90;;;;;;5071214;28;20107;-91
2022/12/17 20:25:13;;;;;;;9.45;6.63;;;6.10;99.90;;;;;;5071616;28;20025;-91
2022/12/17 20:27:39;;;;;;;8.95;6.85;;;5.90;99.90;;;;;;5090711;28;20051;-90
2022/12/17 20:30:05;;;;;;;8.32;6.35;;;6.10;99.90;;;;;;5077748;28;20086;-91
2022/12/17 20:32:31;;;;;;;8.95;6.10;;;5.90;99.90;;;;;;5071303;28;20086;-91
2022/12/17 20:34:57;;;;;;;6.70;5.57;;;6.00;99.90;;;;;;5081773;28;20028;-90
2022/12/17 20:37:22;;;;;;;7.65;5.75;;;6.00;99.90;;;;;;5070516;28;20440;-91
2022/12/17 20:39:48;;;;;;;6.85;5.60;;;5.60;99.90;;;;;;5071001;28;20488;-91
2022/12/17 20:42:16;;;;;;;8.88;6.43;;;5.80;99.90;;;;;;5070894;28;20451;-91
2022/12/17 20:44:42;;;;;;;7.85;5.88;;;5.60;99.90;;;;;;5070545;28;20408;-90
2022/12/17 20:47:08;;;;;;;7.38;5.45;;;5.60;99.90;;;;;;5070787;28;20039;-91
2022/12/17 20:49:33;;;;;;;6.68;4.90;;;5.60;99.90;;;;;;5071212;28;20378;-90
2022/12/17 20:51:59;;;;;;;7.43;5.55;;;5.60;99.90;;;;;;5070926;28;20458;-90
2022/12/17 20:54:25;;;;;;;6.60;5.18;;;5.70;99.90;;;;;;5072742;28;20024;-90
2022/12/17 20:56:50;;;;;;;5.05;4.47;;;5.70;99.90;;;;;;5074845;28;20017;-91
2022/12/17 20:59:18;;;;;;;5.20;4.70;;;5.80;99.90;;;;;;5074453;28;20488;-90
2022/12/17 21:01:45;;;;;;;5.78;4.80;;;5.80;99.90;;;;;;5061709;28;20153;-91
2022/12/17 21:04:12;;;;;;;6.85;5.13;;;5.90;99.90;;;;;;5078308;28;20028;-91
2022/12/17 21:06:41;;;;;;;6.13;4.45;;;5.90;99.90;;;;;;5063140;28;20025;-90
2022/12/17 21:09:07;;;;;;;5.53;4.53;;;5.80;99.90;;;;;;5072828;28;20028;-90
2022/12/17 21:11:34;;;;;;;5.18;4.47;;;5.80;99.90;;;;;;5080271;28;20023;-90
2022/12/17 21:14:09;;;;;;;7.53;5.15;;;5.80;99.90;;;;;;5072252;28;20025;-90
2022/12/17 21:16:36;;;;;;;5.35;4.53;;;5.80;99.90;;;;;;5072467;28;20091;-90
2022/12/17 21:19:03;;;;;;;5.85;4.55;;;5.70;99.90;;;;;;5074300;28;20068;-90
2022/12/17 21:21:31;;;;;;;4.53;4.03;;;5.40;99.90;;;;;;5070924;28;20122;-90
2022/12/17 21:24:00;;;;;;;4.93;4.40;;;5.40;99.90;;;;;;5070075;28;20024;-90
2022/12/17 21:26:28;;;;;;;5.57;4.65;;;5.60;99.90;;;;;;5071948;28;20044;-90
2022/12/17 21:28:58;;;;;;;6.90;4.75;;;5.50;99.90;;;;;;5069907;28;20032;-90
2022/12/17 21:31:27;;;;;;;5.63;4.15;;;5.60;99.90;;;;;;5072214;28;20025;-91
2022/12/17 21:33:55;;;;;;;6.13;4.55;;;5.60;99.90;;;;;;5073203;28;20137;-90
2022/12/17 21:36:22;;;;;;;6.15;4.15;;;5.60;99.90;;;;;;5066893;28;20627;-90
2022/12/17 21:38:49;;;;;;;4.70;4.15;;;5.60;99.90;;;;;;5072482;28;20025;-90
2022/12/17 21:41:18;;;;;;;5.90;4.32;;;5.60;99.90;;;;;;5064852;28;20044;-90
2022/12/17 21:43:44;;;;;;;4.45;4.05;;;5.70;99.90;;;;;;5069289;28;20029;-91
2022/12/17 21:46:11;;;;;;;6.35;4.90;;;5.60;99.90;;;;;;5075980;28;20050;-89
2022/12/17 21:48:40;;;;;;;7.18;5.03;;;5.50;99.90;;;;;;5077542;28;20021;-90
2022/12/17 21:51:08;;;;;;;5.95;5.13;;;5.50;99.90;;;;;;5070116;28;20024;-90
2022/12/17 21:53:34;;;;;;;5.25;4.50;;;5.40;99.90;;;;;;5080598;28;20032;-90
2022/12/17 21:56:04;;;;;;;5.72;5.10;;;5.60;99.90;;;;;;5076828;28;20109;-91
2022/12/17 21:58:30;;;;;;;6.57;5.45;;;5.50;99.90;;;;;;5076014;28;20059;-90
2022/12/17 22:00:56;;;;;;;5.22;4.72;;;5.50;99.90;;;;;;5071778;28;20501;-90
2022/12/17 22:03:21;;;;;;;5.68;4.50;;;5.40;99.90;;;;;;5071928;28;20025;-90
2022/12/17 22:05:47;;;;;;;6.22;5.03;;;5.40;99.90;;;;;;5081689;28;20505;-91
2022/12/17 22:08:13;;;;;;;4.95;4.40;;;5.50;99.90;;;;;;5066062;28;20482;-90
2022/12/17 22:10:42;;;;;;;7.53;5.07;;;5.50;99.90;;;;;;5057737;28;20056;-90
2022/12/17 22:15:54;;;;;;;6.03;4.38;;;5.40;99.90;;;;;;5073407;28;20031;-89
2022/12/17 22:18:20;;;;;;;4.15;3.75;;;5.60;99.90;;;;;;5066100;28;20395;-90
2022/12/17 22:20:56;;;;;;;6.28;5.03;;;5.60;99.90;;;;;;5071344;28;20218;-90
2022/12/17 22:23:22;;;;;;;6.15;4.20;;;5.60;99.90;;;;;;5066340;28;20028;-90
2022/12/17 22:25:48;;;;;;;5.65;3.90;;;5.60;99.90;;;;;;5066179;28;20024;-88
2022/12/17 22:28:13;;;;;;;5.85;4.20;;;5.50;99.90;;;;;;5071331;28;20119;-89
2022/12/17 22:33:23;;;;;;;4.72;4.03;;;5.80;99.90;;;;;;5071660;28;20047;-89
2022/12/17 22:35:49;;;;;;;4.32;3.65;;;5.70;99.90;;;;;;5071635;28;20037;-88
2022/12/17 22:38:15;;;;;;;3.70;3.30;;;5.60;99.90;;;;;;5071963;28;20085;-89
2022/12/17 22:40:41;;;;;;;4.60;3.50;;;5.60;99.90;;;;;;5072436;28;20025;-90
2022/12/17 22:46:01;;;;;;;5.45;3.83;;;5.60;99.90;;;;;;5078714;28;20035;-90
2022/12/17 22:48:29;;;;;;;4.05;3.55;;;5.40;99.90;;;;;;5071579;28;20029;-90
2022/12/17 22:50:55;;;;;;;5.03;3.80;;;5.60;99.90;;;;;;5072022;28;20017;-89
2022/12/17 22:53:22;;;;;;;4.13;3.50;;;5.70;99.90;;;;;;5071528;28;20072;-90
2022/12/17 22:55:48;;;;;;;4.45;3.97;;;5.60;99.90;;;;;;5071380;28;20039;-89
2022/12/17 22:58:14;;;;;;;4.63;3.80;;;5.80;99.90;;;;;;5066811;28;20040;-89
2022/12/17 23:00:40;;;;;;;5.05;4.00;;;5.80;99.90;;;;;;5069769;28;20488;-89
2022/12/17 23:03:05;;;;;;;4.05;3.38;;;5.80;99.90;;;;;;5066402;28;20475;-88
2022/12/17 23:05:32;;;;;;;4.88;3.35;;;5.90;99.90;;;;;;5064340;28;20547;-89
2022/12/17 23:07:58;;;;;;;5.40;3.60;;;5.80;99.90;;;;;;5065820;28;20031;-89
2022/12/17 23:10:25;;;;;;;4.78;3.55;;;5.90;99.90;;;;;;5059020;28;20674;-90
2022/12/17 23:12:53;;;;;;;4.85;3.65;;;6.00;99.90;;;;;;5069850;28;20031;-88
2022/12/17 23:15:26;;;;;;;7.68;4.88;;;6.00;99.90;;;;;;5070916;28;20501;-91
2022/12/17 23:17:54;;;;;;;7.78;4.85;;;5.80;99.90;;;;;;5071862;28;20016;-91
2022/12/17 23:20:20;;;;;;;6.65;4.30;;;5.90;99.90;;;;;;5072300;28;20029;-91
2022/12/17 23:22:46;;;;;;;21.40;8.90;;;6.00;99.90;;;;;;5066529;28;20048;-91
2022/12/17 23:25:12;;;;;;;19.50;9.68;;;6.00;99.90;;;;;;5071723;28;20021;-91
2022/12/17 23:27:41;;;;;;;17.73;8.65;;;6.10;99.90;;;;;;5070694;28;20414;-91
2022/12/17 23:30:07;;;;;;;16.95;7.78;;;6.10;99.90;;;;;;5071486;28;20047;-90
2022/12/17 23:32:34;;;;;;;13.23;7.72;;;6.10;99.90;;;;;;5058212;28;20020;-90
2022/12/17 23:34:59;;;;;;;11.52;6.45;;;6.10;99.90;;;;;;5071822;28;20031;-91
2022/12/17 23:37:25;;;;;;;11.85;6.15;;;6.00;99.90;;;;;;5071547;28;20012;-90
2022/12/17 23:39:51;;;;;;;12.07;6.25;;;6.00;99.90;;;;;;5071674;28;20511;-90
2022/12/17 23:42:16;;;;;;;10.20;5.57;;;6.10;99.90;;;;;;5078011;28;20012;-90
2022/12/17 23:44:42;;;;;;;8.23;5.35;;;6.10;99.90;;;;;;5078126;28;20611;-89
2022/12/17 23:47:08;;;;;;;8.40;4.97;;;6.10;99.90;;;;;;5070860;28;20554;-90
2022/12/17 23:49:34;;;;;;;8.57;5.90;;;6.10;99.90;;;;;;5071313;28;20024;-90
2022/12/17 23:51:59;;;;;;;7.30;4.68;;;6.20;99.90;;;;;;5070948;28;20025;-90
2022/12/17 23:54:26;;;;;;;7.30;4.70;;;6.20;99.90;;;;;;5084712;28;20497;-91
2022/12/17 23:56:52;;;;;;;6.40;4.45;;;6.30;99.90;;;;;;5081356;28;20048;-91
2022/12/17 23:59:17;;;;;;;6.68;4.85;;;6.10;99.90;;;;;;5071391;28;20503;-90
